Time;durP1;ratioP1;P1;durP2;ratioP2;P2;SDS_P1;SDS_P2;PMS_P1;PMS_P2;Temp;Humidity;BMP_temperature;BMP_pressure;BME280_temperature;BME280_humidity;BME280_pressure;Samples;Min_cycle;Max_cycle;Signal;HPM_P1;HPM_P2
2021/08/04 00:00:09;;;;;;;5.57;2.40;;;;;;;12.90;100.00;101286.78;5011148;28;20092;-81
2021/08/04 00:02:38;;;;;;;4.80;2.08;;;;;;;12.96;100.00;101284.41;4993803;28;20033;-82
2021/08/04 00:05:04;;;;;;;4.80;2.05;;;;;;;12.97;100.00;101286.03;4976859;28;20046;-82
2021/08/04 00:07:30;;;;;;;6.47;2.20;;;;;;;13.03;100.00;101282.00;5008848;28;20048;-80
2021/08/04 00:09:55;;;;;;;4.57;2.10;;;;;;;13.09;100.00;101285.84;5011485;28;20108;-80
2021/08/04 00:12:21;;;;;;;6.28;2.20;;;;;;;13.15;100.00;101280.81;4993844;28;20117;-79
2021/08/04 00:14:46;;;;;;;7.40;2.20;;;;;;;13.20;100.00;101286.47;5009780;28;20030;-81
2021/08/04 00:17:12;;;;;;;3.38;2.30;;;;;;;13.22;100.00;101279.22;4978236;28;20033;-80
2021/08/04 00:19:37;;;;;;;6.97;2.25;;;;;;;13.28;100.00;101277.81;4985610;28;20506;-81
2021/08/04 00:22:03;;;;;;;4.72;2.45;;;;;;;13.31;100.00;101285.41;5005142;28;20557;-80
2021/08/04 00:24:29;;;;;;;2.92;2.17;;;;;;;13.21;100.00;101279.38;4983730;28;20096;-80
2021/08/04 00:27:04;;;;;;;4.28;2.30;;;;;;;13.16;99.98;101274.53;5002264;28;20046;-79
2021/08/04 00:29:29;;;;;;;3.38;1.90;;;;;;;13.21;100.00;101279.38;5008470;28;20128;-80
2021/08/04 00:32:04;;;;;;;3.28;1.80;;;;;;;13.16;99.66;101277.19;4998059;28;20110;-79
2021/08/04 00:34:30;;;;;;;2.80;1.75;;;;;;;13.19;100.00;101278.69;4996200;28;20061;-78
2021/08/04 00:36:55;;;;;;;3.45;1.90;;;;;;;13.18;100.00;101280.50;4995740;28;20567;-79
2021/08/04 00:39:21;;;;;;;4.43;1.98;;;;;;;13.15;100.00;101269.44;5008101;28;20113;-79
2021/08/04 00:41:47;;;;;;;4.30;2.20;;;;;;;13.26;100.00;101282.41;4974699;28;20037;-79
2021/08/04 00:44:13;;;;;;;3.05;2.10;;;;;;;13.30;99.88;101281.16;4991989;28;20041;-81
2021/08/04 00:46:44;;;;;;;5.35;2.45;;;;;;;13.32;99.57;101288.91;5008514;28;20495;-79
2021/08/04 00:49:12;;;;;;;;;;;;;;;13.31;99.51;101287.22;4992233;28;20034;-80
2021/08/04 00:51:38;;;;;;;5.03;1.95;;;;;;;13.22;99.34;101273.97;5014724;28;19917;-80
2021/08/04 00:54:08;;;;;;;6.70;2.05;;;;;;;13.24;99.16;101279.06;4989661;28;20172;-79
2021/08/04 00:56:35;;;;;;;3.50;2.15;;;;;;;13.22;99.61;101281.88;4990639;28;20051;-80
2021/08/04 00:59:02;;;;;;;7.57;1.85;;;;;;;13.18;99.45;101275.22;4987877;28;20041;-79
2021/08/04 01:01:50;;;;;;;5.70;2.20;;;;;;;13.15;100.00;101277.34;4992256;28;20041;-80
2021/08/04 01:04:22;;;;;;;2.35;2.15;;;;;;;13.19;99.87;101289.25;4995500;28;20037;-78
2021/08/04 01:07:00;;;;;;;3.50;2.30;;;;;;;13.13;100.00;101285.41;4996710;28;20044;-80
2021/08/04 01:09:31;;;;;;;2.97;2.30;;;;;;;13.08;100.00;101287.66;4977010;28;20033;-79
2021/08/04 01:12:18;;;;;;;11.75;2.42;;;;;;;13.06;100.00;101286.97;4992976;28;20037;-80
2021/08/04 01:14:47;;;;;;;4.32;2.35;;;;;;;13.11;100.00;101286.50;4990998;28;20492;-79
2021/08/04 01:17:16;;;;;;;3.80;2.40;;;;;;;13.13;100.00;101293.31;4990515;28;20061;-79
2021/08/04 01:19:57;;;;;;;4.63;2.20;;;;;;;13.16;100.00;101292.16;5012755;28;20503;-79
2021/08/04 01:22:39;;;;;;;5.05;2.38;;;;;;;13.17;100.00;101299.09;4974045;28;20069;-80
2021/08/04 01:25:14;;;;;;;5.95;2.20;;;;;;;13.23;100.00;101299.31;5007107;28;20455;-79
2021/08/04 01:27:48;;;;;;;6.88;2.85;;;;;;;13.24;100.00;101297.50;5008544;28;20404;-78
2021/08/04 01:30:14;;;;;;;8.18;2.08;;;;;;;13.17;100.00;101276.22;4991068;28;20096;-78
2021/08/04 01:32:40;;;;;;;5.40;2.30;;;;;;;13.24;100.00;101286.97;4996817;28;20041;-79
2021/08/04 01:35:07;;;;;;;3.95;2.15;;;;;;;13.25;100.00;101292.09;4971080;28;20723;-79
2021/08/04 01:37:35;;;;;;;6.93;2.30;;;;;;;13.26;100.00;101292.94;5015212;28;20120;-78
2021/08/04 01:40:02;;;;;;;3.72;2.13;;;;;;;13.19;100.00;101282.16;4990629;28;20045;-78
2021/08/04 01:42:33;;;;;;;4.15;2.25;;;;;;;13.27;100.00;101294.56;4992814;28;20041;-79
2021/08/04 01:45:00;;;;;;;4.60;2.17;;;;;;;13.23;100.00;101288.78;5002551;28;20048;-78
2021/08/04 01:47:29;;;;;;;3.10;2.00;;;;;;;13.23;100.00;101291.41;4974735;28;20494;-78
2021/08/04 01:49:56;;;;;;;2.53;1.83;;;;;;;13.20;100.00;101290.88;4991109;28;20154;-77
2021/08/04 01:52:21;;;;;;;8.35;2.17;;;;;;;13.15;100.00;101293.16;4993217;28;20045;-79
2021/08/04 01:54:47;;;;;;;11.32;3.22;;;;;;;13.15;100.00;101293.97;4988812;28;20038;-79
2021/08/04 01:57:13;;;;;;;6.88;1.92;;;;;;;13.07;100.00;101274.63;5008081;28;21141;-78
2021/08/04 01:59:39;;;;;;;5.03;1.90;;;;;;;13.19;100.00;101292.69;5016904;28;20517;-79
2021/08/04 02:02:22;;;;;;;2.65;2.03;;;;;;;13.14;100.00;101294.94;4992112;28;20065;-79
2021/08/04 02:04:48;;;;;;;;;;;;;;;13.15;100.00;101301.06;5007226;28;20096;-78
2021/08/04 02:07:26;;;;;;;3.97;1.70;;;;;;;13.10;100.00;101295.41;4984786;28;20617;-78
2021/08/04 02:09:53;;;;;;;3.92;2.15;;;;;;;13.07;100.00;101291.25;5012000;28;20095;-79
2021/08/04 02:12:21;;;;;;;6.55;2.35;;;;;;;13.02;100.00;101285.63;5007557;28;20038;-80
2021/08/04 02:15:03;;;;;;;7.82;2.30;;;;;;;13.02;100.00;101293.50;5009802;28;20468;-79
2021/08/04 02:17:40;;;;;;;6.07;2.30;;;;;;;12.98;100.00;101290.34;4998920;28;20069;-79
2021/08/04 02:20:17;;;;;;;7.03;2.30;;;;;;;12.93;100.00;101284.69;4973597;28;20465;-80
2021/08/04 02:22:53;;;;;;;3.00;1.98;;;;;;;12.88;100.00;101286.13;4990591;28;20109;-80
2021/08/04 02:25:42;;;;;;;7.68;2.13;;;;;;;12.91;100.00;101284.03;4993273;28;20405;-79
2021/08/04 02:28:13;;;;;;;6.88;2.13;;;;;;;12.96;100.00;101276.50;4977534;28;20065;-80
2021/08/04 02:30:39;;;;;;;9.27;2.20;;;;;;;12.97;100.00;101275.50;5008078;28;20116;-81
2021/08/04 02:33:06;;;;;;;11.20;2.30;;;;;;;12.95;100.00;101272.22;4990730;28;20172;-78
2021/08/04 02:35:33;;;;;;;4.07;2.33;;;;;;;12.95;100.00;101271.38;4991347;28;20038;-78
2021/08/04 02:37:59;;;;;;;5.18;2.50;;;;;;;12.92;100.00;101267.25;4992284;28;20034;-79
2021/08/04 02:40:25;;;;;;;4.13;2.28;;;;;;;12.92;100.00;101264.63;5008202;28;20149;-78
2021/08/04 02:42:54;;;;;;;7.45;2.47;;;;;;;13.00;100.00;101269.13;4991956;28;20045;-79
2021/08/04 02:45:20;;;;;;;6.80;2.10;;;;;;;12.93;100.00;101273.34;4976050;28;20045;-78
2021/08/04 02:47:46;;;;;;;9.02;2.25;;;;;;;12.86;100.00;101254.66;5008800;28;20042;-80
2021/08/04 02:50:14;;;;;;;8.23;2.00;;;;;;;12.89;100.00;101266.72;4992540;28;20034;-79
2021/08/04 02:52:42;;;;;;;4.40;2.13;;;;;;;12.88;100.00;101276.41;4996674;28;20038;-79
2021/08/04 02:55:08;;;;;;;7.45;2.45;;;;;;;12.81;100.00;101265.66;5018021;28;20037;-79
2021/08/04 02:57:34;;;;;;;4.85;2.20;;;;;;;12.82;100.00;101272.56;5011842;28;20064;-79
2021/08/04 03:00:01;;;;;;;3.25;2.10;;;;;;;12.82;100.00;101269.09;5011861;28;20042;-79
2021/08/04 03:02:27;;;;;;;5.43;2.40;;;;;;;12.78;100.00;101271.22;4994882;28;20523;-77
2021/08/04 03:04:53;;;;;;;5.32;2.30;;;;;;;12.85;100.00;101280.16;4979488;28;20030;-79
2021/08/04 03:07:18;;;;;;;6.68;2.40;;;;;;;12.82;100.00;101272.56;5001712;28;20080;-78
2021/08/04 03:09:44;;;;;;;5.93;2.55;;;;;;;12.85;100.00;101274.91;5029668;28;20048;-77
2021/08/04 03:12:09;;;;;;;3.55;2.40;;;;;;;12.88;100.00;101275.59;4997337;28;20133;-78
2021/08/04 03:14:35;;;;;;;3.67;2.25;;;;;;;12.93;100.00;101278.59;4998122;28;20040;-79
2021/08/04 03:17:00;;;;;;;3.28;2.08;;;;;;;12.93;100.00;101268.91;4988656;28;20510;-79
2021/08/04 03:19:26;;;;;;;5.10;2.35;;;;;;;12.95;100.00;101279.28;4996218;28;20095;-80
2021/08/04 03:21:51;;;;;;;6.18;2.38;;;;;;;12.97;100.00;101270.25;5010278;28;20439;-79
2021/08/04 03:24:17;;;;;;;3.65;2.28;;;;;;;12.90;100.00;101269.19;4994882;28;20125;-79
2021/08/04 03:26:42;;;;;;;5.55;2.55;;;;;;;12.91;100.00;101270.03;5005972;28;20116;-77
2021/08/04 03:29:08;;;;;;;2.95;2.70;;;;;;;12.97;100.00;101279.97;4986490;28;20595;-78
2021/08/04 03:31:33;;;;;;;5.75;2.70;;;;;;;12.93;100.00;101276.78;4990083;28;20042;-79
2021/08/04 03:33:59;;;;;;;11.85;2.95;;;;;;;12.93;100.00;101275.97;4979543;28;20034;-79
2021/08/04 03:36:24;;;;;;;4.85;2.40;;;;;;;12.95;100.00;101279.28;4995522;28;20081;-79
2021/08/04 03:38:50;;;;;;;8.40;2.25;;;;;;;12.92;100.00;101285.69;5009890;28;20038;-78
2021/08/04 03:41:16;;;;;;;6.22;2.88;;;;;;;12.89;100.00;101282.53;5009534;28;20071;-79
2021/08/04 03:43:41;;;;;;;5.80;2.47;;;;;;;12.84;100.00;101278.50;4993528;28;20088;-81
2021/08/04 03:46:07;;;;;;;8.07;2.47;;;;;;;12.81;100.00;101281.44;5005454;28;20212;-79
2021/08/04 03:48:32;;;;;;;7.47;2.50;;;;;;;12.85;100.00;101282.81;5013002;28;20109;-78
2021/08/04 03:50:59;;;;;;;3.83;2.30;;;;;;;12.87;100.00;101287.09;5010129;28;20037;-79
2021/08/04 03:53:24;;;;;;;5.35;2.60;;;;;;;12.79;100.00;101279.91;4992531;28;20034;-80
2021/08/04 03:55:50;;;;;;;3.17;2.67;;;;;;;12.82;100.00;101284.91;5009093;28;20072;-78
2021/08/04 03:58:16;;;;;;;7.53;2.50;;;;;;;12.84;100.00;101286.41;4984146;28;20042;-81
2021/08/04 04:00:43;;;;;;;5.88;2.38;;;;;;;12.84;100.00;101285.56;5010456;28;20033;-79
2021/08/04 04:03:09;;;;;;;4.18;2.65;;;;;;;12.80;100.00;101284.22;5009276;28;20026;-78
2021/08/04 04:05:35;;;;;;;3.50;3.10;;;;;;;12.80;100.00;101292.94;5009109;28;20038;-78
2021/08/04 04:08:00;;;;;;;5.28;2.60;;;;;;;12.80;100.00;101289.50;5005295;28;20121;-78
2021/08/04 04:10:26;;;;;;;9.95;3.25;;;;;;;12.74;100.00;101279.56;4991036;28;20046;-79
2021/08/04 04:12:51;;;;;;;4.25;2.67;;;;;;;12.76;100.00;101293.41;5009915;28;20046;-77
2021/08/04 04:15:17;;;;;;;7.22;2.40;;;;;;;12.76;100.00;101290.75;4991496;28;21395;-78
2021/08/04 04:17:42;;;;;;;4.28;2.40;;;;;;;12.85;100.00;101297.78;4994706;28;20034;-78
2021/08/04 04:20:09;;;;;;;6.40;3.17;;;;;;;12.89;100.00;101288.59;5014145;28;20458;-79
2021/08/04 04:22:35;;;;;;;7.68;3.20;;;;;;;12.93;100.00;101294.41;4993322;28;20526;-78
2021/08/04 04:25:01;;;;;;;7.75;2.67;;;;;;;13.04;100.00;101299.47;5009294;28;20061;-79
2021/08/04 04:27:26;;;;;;;8.48;3.00;;;;;;;13.09;100.00;101304.25;4984769;28;20571;-78
2021/08/04 04:29:52;;;;;;;7.43;2.88;;;;;;;13.12;100.00;101310.06;5015999;28;20038;-80
2021/08/04 04:32:17;;;;;;;3.33;2.67;;;;;;;13.13;100.00;101306.47;4992345;28;20100;-79
2021/08/04 04:34:43;;;;;;;5.03;3.25;;;;;;;13.13;99.74;101308.25;4992624;28;20038;-79
2021/08/04 04:37:08;;;;;;;4.93;3.10;;;;;;;13.17;100.00;101307.81;5012844;28;20065;-80
2021/08/04 04:39:34;;;;;;;4.15;2.97;;;;;;;13.20;99.16;101307.53;5009862;28;20076;-79
2021/08/04 04:41:59;;;;;;;5.47;2.90;;;;;;;13.24;99.48;101306.25;4993212;28;20491;-80
2021/08/04 04:44:25;;;;;;;3.45;2.90;;;;;;;13.10;98.50;101290.97;4992612;28;20038;-80
2021/08/04 04:46:50;;;;;;;6.47;2.80;;;;;;;13.22;99.43;101305.56;4993371;28;20087;-80
2021/08/04 04:49:16;;;;;;;6.70;2.80;;;;;;;13.30;99.22;101306.59;5011397;28;20045;-80
2021/08/04 04:51:41;;;;;;;4.80;2.70;;;;;;;13.33;99.19;101315.06;5010974;28;20037;-79
2021/08/04 04:54:07;;;;;;;5.55;3.08;;;;;;;13.34;98.78;101318.56;5011515;28;20033;-79
2021/08/04 04:56:32;;;;;;;5.72;3.03;;;;;;;13.34;99.29;101316.75;5015370;28;20053;-79
2021/08/04 04:58:58;;;;;;;8.30;3.30;;;;;;;13.34;99.71;101311.47;5000478;28;20117;-79
2021/08/04 05:01:23;;;;;;;3.88;2.80;;;;;;;13.39;98.57;101313.63;5012852;28;20040;-78
2021/08/04 05:03:50;;;;;;;7.88;3.17;;;;;;;13.46;100.00;101314.69;5021304;28;20026;-79
2021/08/04 05:06:16;;;;;;;6.85;2.90;;;;;;;13.42;98.63;101322.06;4989736;28;20070;-80
2021/08/04 05:08:41;;;;;;;12.70;3.20;;;;;;;13.49;99.35;101319.69;4987043;28;20978;-79
2021/08/04 05:11:07;;;;;;;7.18;2.92;;;;;;;13.55;96.84;101326.97;4976477;28;20080;-79
2021/08/04 05:13:36;;;;;;;9.88;2.60;;;;;;;13.59;97.11;101328.31;4992168;28;20033;-79
2021/08/04 05:16:01;;;;;;;4.00;2.47;;;;;;;13.65;99.08;101332.16;4993979;28;20041;-78
2021/08/04 05:18:27;;;;;;;3.80;3.00;;;;;;;13.65;97.44;101318.16;4992003;28;20519;-79
2021/08/04 05:20:52;;;;;;;3.03;2.58;;;;;;;13.72;96.01;101321.84;5009675;28;20037;-79
2021/08/04 05:23:17;;;;;;;9.55;2.60;;;;;;;13.94;97.33;101328.44;4992435;28;20488;-80
2021/08/04 05:25:43;;;;;;;5.82;2.60;;;;;;;13.89;94.61;101323.59;4999348;28;20053;-79
2021/08/04 05:28:09;;;;;;;6.57;2.78;;;;;;;14.04;95.33;101328.34;5012487;28;20551;-79
2021/08/04 05:30:34;;;;;;;8.32;2.50;;;;;;;14.06;95.24;101329.00;5008947;28;20077;-79
2021/08/04 05:32:59;;;;;;;5.47;2.80;;;;;;;14.07;94.22;101320.94;5009388;28;20048;-80
2021/08/04 05:35:26;;;;;;;5.72;2.30;;;;;;;14.20;95.05;101325.78;4992400;28;20041;-80
2021/08/04 05:37:51;;;;;;;5.03;2.17;;;;;;;14.26;94.45;101334.88;5010771;28;20068;-80
2021/08/04 05:40:17;;;;;;;3.85;2.30;;;;;;;14.37;93.81;101334.59;4977978;28;20478;-80
2021/08/04 05:42:42;;;;;;;5.38;2.42;;;;;;;14.44;94.83;101340.09;5009679;28;20467;-79
2021/08/04 05:45:08;;;;;;;3.70;2.50;;;;;;;14.46;93.42;101335.50;5013020;28;20045;-79
2021/08/04 05:47:34;;;;;;;6.65;2.35;;;;;;;14.51;93.89;101334.03;4992553;28;20030;-79
2021/08/04 05:49:59;;;;;;;4.72;2.28;;;;;;;14.61;95.69;101339.22;4976937;28;20044;-79
2021/08/04 05:52:25;;;;;;;5.53;2.40;;;;;;;14.65;91.90;101337.91;5008521;28;20063;-79
2021/08/04 05:54:51;;;;;;;3.53;2.13;;;;;;;14.71;91.33;101339.09;5016915;28;20084;-79
2021/08/04 05:57:17;;;;;;;5.72;2.20;;;;;;;14.75;88.50;101337.81;5013053;28;20567;-78
2021/08/04 05:59:42;;;;;;;3.95;2.25;;;;;;;14.79;89.38;101339.13;4993143;28;20120;-81
2021/08/04 06:02:08;;;;;;;5.35;2.17;;;;;;;14.87;89.46;101338.34;4992761;28;20073;-78
2021/08/04 06:04:33;;;;;;;4.57;2.58;;;;;;;14.85;90.54;101333.22;4976717;28;20057;-78
2021/08/04 06:06:59;;;;;;;3.80;2.15;;;;;;;14.90;90.47;101338.00;5009374;28;20500;-79
2021/08/04 06:09:24;;;;;;;2.65;1.75;;;;;;;14.99;90.45;101344.97;4992632;28;20034;-81
2021/08/04 06:11:50;;;;;;;3.63;1.92;;;;;;;15.11;92.15;101353.44;4979857;28;20034;-80
2021/08/04 06:14:15;;;;;;;6.60;1.95;;;;;;;15.14;87.12;101353.09;4981161;28;20034;-79
2021/08/04 06:16:41;;;;;;;2.50;1.63;;;;;;;15.26;89.66;101345.72;4992798;28;20046;-78
2021/08/04 06:19:06;;;;;;;6.60;1.60;;;;;;;15.33;88.72;101350.19;4995810;28;20137;-78
2021/08/04 06:21:32;;;;;;;4.38;1.90;;;;;;;15.45;88.03;101355.97;4992568;28;20046;-79
2021/08/04 06:23:57;;;;;;;4.13;2.20;;;;;;;15.56;87.68;101360.13;4996466;28;20021;-80
2021/08/04 06:26:23;;;;;;;2.10;1.73;;;;;;;15.57;85.18;101359.13;5016995;28;20125;-78
2021/08/04 06:28:49;;;;;;;3.20;1.73;;;;;;;15.61;84.83;101360.44;5012315;28;20096;-80
2021/08/04 06:31:15;;;;;;;4.15;1.80;;;;;;;15.77;86.09;101359.66;4995883;28;20117;-80
2021/08/04 06:33:40;;;;;;;5.50;1.80;;;;;;;15.77;85.82;101359.66;4979878;28;20459;-79
2021/08/04 06:36:06;;;;;;;4.90;1.90;;;;;;;15.93;83.97;101370.22;4996548;28;20030;-78
2021/08/04 06:38:32;;;;;;;3.65;1.70;;;;;;;16.01;84.09;101357.97;4979788;28;20037;-81
2021/08/04 06:40:58;;;;;;;6.60;1.60;;;;;;;16.16;85.13;101369.53;4996301;28;20026;-80
2021/08/04 06:43:23;;;;;;;4.47;1.90;;;;;;;16.22;81.91;101358.28;4989058;28;20411;-79
2021/08/04 06:45:49;;;;;;;2.60;1.85;;;;;;;16.44;83.69;101366.50;5014875;28;20113;-78
2021/08/04 06:48:14;;;;;;;3.95;1.90;;;;;;;16.54;81.36;101360.00;4991382;28;20107;-79
2021/08/04 06:50:41;;;;;;;4.35;1.55;;;;;;;16.78;79.27;101363.56;5032059;28;20037;-79
2021/08/04 06:53:06;;;;;;;4.32;1.52;;;;;;;16.81;79.44;101371.16;5003232;28;20132;-79
2021/08/04 06:55:32;;;;;;;8.10;1.70;;;;;;;16.76;75.87;101356.78;4993881;28;20113;-79
2021/08/04 06:57:57;;;;;;;7.68;1.90;;;;;;;16.86;77.65;101365.41;5023743;28;20033;-79
2021/08/04 07:00:23;;;;;;;3.80;1.48;;;;;;;16.92;76.04;101362.88;5014210;28;20034;-78
2021/08/04 07:02:49;;;;;;;7.15;1.70;;;;;;;17.02;74.98;101362.66;4999460;28;20088;-79
2021/08/04 07:05:17;;;;;;;2.42;1.20;;;;;;;17.26;72.99;101367.00;4996767;28;20117;-81
2021/08/04 07:07:43;;;;;;;1.73;1.33;;;;;;;17.42;74.14;101371.38;5014779;28;20096;-80
2021/08/04 07:10:10;;;;;;;2.63;1.30;;;;;;;17.39;72.44;101381.50;5001871;28;20120;-80
2021/08/04 07:12:37;;;;;;;3.40;1.52;;;;;;;17.51;71.77;101374.78;5009841;28;20068;-80
2021/08/04 07:15:05;;;;;;;8.02;1.25;;;;;;;17.50;71.85;101379.25;4992039;28;20037;-79
2021/08/04 07:17:42;;;;;;;3.03;1.50;;;;;;;17.47;72.03;101366.34;5018414;28;20064;-80
2021/08/04 07:20:08;;;;;;;2.30;1.15;;;;;;;17.35;71.25;101380.19;5003283;28;20570;-80
2021/08/04 07:22:33;;;;;;;2.72;1.40;;;;;;;17.37;73.92;101380.88;4982788;28;20034;-79
2021/08/04 07:24:58;;;;;;;2.63;1.23;;;;;;;17.52;76.88;101387.88;5013797;28;20042;-79
2021/08/04 07:27:24;;;;;;;3.08;1.33;;;;;;;17.30;74.08;101386.03;4997002;28;20120;-80
2021/08/04 07:29:50;;;;;;;2.45;1.23;;;;;;;17.23;74.19;101379.75;4996924;28;20155;-80
2021/08/04 07:32:15;;;;;;;5.25;1.75;;;;;;;17.21;76.42;101397.69;4995871;28;20056;-81
2021/08/04 07:34:41;;;;;;;7.10;1.48;;;;;;;17.01;78.64;101386.66;4996133;28;20482;-79
2021/08/04 07:37:08;;;;;;;3.13;1.40;;;;;;;16.88;75.71;101390.72;4996157;28;20112;-79
2021/08/04 07:39:33;;;;;;;4.28;1.33;;;;;;;16.75;79.44;101398.34;4998514;28;20044;-81
2021/08/04 07:41:59;;;;;;;3.72;1.58;;;;;;;16.55;81.39;101384.66;5012451;28;20038;-80
2021/08/04 07:44:24;;;;;;;4.55;1.52;;;;;;;16.51;82.26;101391.31;4979754;28;20030;-79
2021/08/04 07:46:50;;;;;;;1.60;1.27;;;;;;;16.51;80.29;101396.59;4980254;28;20063;-80
2021/08/04 07:49:15;;;;;;;2.53;1.45;;;;;;;16.50;81.45;101394.94;5002769;28;20025;-79
2021/08/04 07:51:41;;;;;;;6.30;1.58;;;;;;;16.51;82.78;101381.53;4991196;28;20037;-81
2021/08/04 07:54:06;;;;;;;2.80;1.40;;;;;;;16.55;84.62;101384.66;5013751;28;20488;-81
2021/08/04 07:56:32;;;;;;;2.30;1.27;;;;;;;16.61;83.66;101386.63;4995983;28;20038;-80
2021/08/04 07:59:02;;;;;;;7.50;1.60;;;;;;;16.72;83.66;101388.09;5011623;28;20033;-79
2021/08/04 08:01:29;;;;;;;3.45;1.58;;;;;;;16.73;85.11;101387.09;4993775;28;20515;-78
2021/08/04 08:03:55;;;;;;;6.40;1.33;;;;;;;16.79;82.98;101385.59;4977625;28;20538;-78
2021/08/04 08:06:20;;;;;;;4.00;1.40;;;;;;;16.80;78.53;101385.44;4979765;28;20049;-81
2021/08/04 08:08:46;;;;;;;7.80;1.40;;;;;;;16.97;81.14;101385.38;5010185;28;20124;-79
2021/08/04 08:11:11;;;;;;;3.05;1.45;;;;;;;16.93;80.89;101390.19;4996170;28;20044;-75
2021/08/04 08:13:37;;;;;;;4.38;1.40;;;;;;;16.89;82.87;101383.59;4995170;28;20084;-77
2021/08/04 08:16:03;;;;;;;3.40;1.30;;;;;;;16.96;81.53;101391.69;4975911;28;20033;-76
2021/08/04 08:18:29;;;;;;;4.43;1.45;;;;;;;16.92;80.97;101386.72;5003419;28;20706;-77
2021/08/04 08:20:55;;;;;;;5.32;1.63;;;;;;;16.97;83.00;101393.31;5011593;28;20040;-76
2021/08/04 08:23:21;;;;;;;4.10;1.80;;;;;;;16.90;84.28;101375.47;5012006;28;20687;-76
2021/08/04 08:25:46;;;;;;;1.90;1.27;;;;;;;16.95;83.14;101388.19;5010881;28;20076;-77
2021/08/04 08:28:12;;;;;;;1.67;1.50;;;;;;;16.96;83.24;101387.19;5010779;28;20026;-76
2021/08/04 08:30:38;;;;;;;5.82;1.48;;;;;;;16.95;82.99;101387.38;5009325;28;20029;-76
2021/08/04 08:33:04;;;;;;;2.13;1.50;;;;;;;16.86;80.09;101389.25;5010352;28;20072;-77
2021/08/04 08:35:32;;;;;;;1.98;1.60;;;;;;;16.85;82.79;101387.56;4994220;28;20050;-76
2021/08/04 08:37:58;;;;;;;2.08;1.50;;;;;;;16.85;80.87;101380.44;5024131;28;20029;-76
2021/08/04 08:40:24;;;;;;;3.92;1.63;;;;;;;16.87;82.73;101388.22;5013218;28;20041;-77
2021/08/04 08:42:49;;;;;;;1.30;1.20;;;;;;;16.93;81.92;101379.59;5012339;28;20044;-76
2021/08/04 08:45:15;;;;;;;2.40;1.40;;;;;;;16.98;82.00;101387.03;5013372;28;20037;-77
2021/08/04 08:47:42;;;;;;;5.60;1.42;;;;;;;17.06;82.23;101392.28;4997075;28;20034;-76
2021/08/04 08:50:09;;;;;;;3.55;1.50;;;;;;;17.16;81.33;101400.00;4995605;28;20041;-76
2021/08/04 08:52:35;;;;;;;2.22;1.48;;;;;;;17.18;78.02;101367.06;5029461;28;20045;-76
2021/08/04 08:55:01;;;;;;;3.83;1.75;;;;;;;17.40;77.55;101399.88;5014788;28;20037;-77
2021/08/04 08:57:28;;;;;;;3.70;1.60;;;;;;;17.49;78.05;101393.50;4997997;28;20307;-77
2021/08/04 08:59:57;;;;;;;2.17;1.70;;;;;;;17.62;74.92;101387.63;5027733;28;20113;-79
2021/08/04 09:02:27;;;;;;;1.80;1.38;;;;;;;17.74;80.94;101390.69;5016541;28;20109;-79
2021/08/04 09:05:00;;;;;;;2.28;1.52;;;;;;;17.90;78.48;101395.06;5003229;28;20507;-78
2021/08/04 09:07:30;;;;;;;4.65;1.90;;;;;;;17.92;75.03;101387.75;5017493;28;20049;-77
2021/08/04 09:09:56;;;;;;;3.38;1.58;;;;;;;18.01;78.16;101394.66;5005604;28;20041;-77
2021/08/04 09:12:22;;;;;;;3.15;1.52;;;;;;;18.05;75.72;101392.47;5011662;28;20092;-76
2021/08/04 09:14:47;;;;;;;1.95;1.65;;;;;;;18.15;76.97;101385.06;5001394;28;20388;-76
2021/08/04 09:17:15;;;;;;;2.58;1.20;;;;;;;18.24;75.28;101399.91;5022951;28;20836;-75
2021/08/04 09:19:49;;;;;;;2.65;1.40;;;;;;;18.11;75.03;101402.34;4985862;28;20128;-77
2021/08/04 09:22:20;;;;;;;3.45;1.55;;;;;;;18.17;78.07;101395.50;4996576;28;20037;-76
2021/08/04 09:24:54;;;;;;;4.47;1.40;;;;;;;18.13;75.51;101400.34;4993583;28;20554;-78
2021/08/04 09:27:19;;;;;;;5.88;1.80;;;;;;;18.21;75.02;101394.13;5009870;28;20205;-77
2021/08/04 09:29:59;;;;;;;4.47;1.48;;;;;;;18.41;75.85;101397.91;5010453;28;20061;-78
2021/08/04 09:32:26;;;;;;;2.47;1.60;;;;;;;18.80;73.05;101391.53;4970125;28;20034;-77
2021/08/04 09:34:52;;;;;;;3.13;1.63;;;;;;;19.69;72.19;101401.06;5001453;28;20057;-77
2021/08/04 09:37:19;;;;;;;5.03;1.65;;;;;;;20.44;67.48;101398.81;5018540;28;20114;-77
2021/08/04 09:39:54;;;;;;;3.33;1.40;;;;;;;20.55;63.40;101386.75;4992762;28;20515;-77
2021/08/04 09:42:21;;;;;;;5.00;1.80;;;;;;;20.83;63.54;101391.25;5009324;28;20129;-77
2021/08/04 09:44:54;;;;;;;4.13;1.60;;;;;;;21.12;63.60;101404.28;5008978;28;20743;-77
2021/08/04 09:47:20;;;;;;;3.17;1.50;;;;;;;21.42;60.78;101411.13;5020808;28;20050;-77
2021/08/04 09:50:02;;;;;;;2.13;1.40;;;;;;;21.44;60.72;101404.59;4995239;28;20042;-76
2021/08/04 09:52:30;;;;;;;4.97;1.80;;;;;;;21.00;61.23;101404.03;4971901;28;20119;-77
2021/08/04 09:55:10;;;;;;;5.10;1.30;;;;;;;20.94;62.17;101391.47;4994655;28;20147;-77
2021/08/04 09:57:44;;;;;;;7.00;1.85;;;;;;;20.52;61.78;101395.16;4993949;28;20081;-78
2021/08/04 10:00:11;;;;;;;4.47;1.70;;;;;;;20.32;63.49;101387.84;4976776;28;20057;-78
2021/08/04 10:02:37;;;;;;;4.65;1.50;;;;;;;20.73;64.46;101384.44;4994551;28;20025;-78
2021/08/04 10:05:24;;;;;;;3.85;1.90;;;;;;;20.76;62.15;101386.72;5013610;28;20098;-77
2021/08/04 10:08:08;;;;;;;2.00;1.60;;;;;;;20.75;64.61;101381.56;4997222;28;20101;-78
2021/08/04 10:10:42;;;;;;;9.32;1.88;;;;;;;20.71;62.35;101386.47;4997047;28;20404;-77
2021/08/04 10:13:10;;;;;;;1.83;1.48;;;;;;;20.78;63.09;101383.84;5002390;28;20160;-77
2021/08/04 10:15:41;;;;;;;2.63;1.30;;;;;;;20.75;65.73;101385.03;4983072;28;20500;-77
2021/08/04 10:18:11;;;;;;;7.27;1.70;;;;;;;20.66;65.58;101364.91;5014291;28;20135;-78
2021/08/04 10:20:37;;;;;;;3.65;1.70;;;;;;;20.52;65.01;101377.31;5006454;28;20187;-78
2021/08/04 10:23:03;;;;;;;2.85;1.45;;;;;;;20.44;66.95;101374.84;4993323;28;20037;-78
2021/08/04 10:25:29;;;;;;;3.78;1.20;;;;;;;20.35;67.21;101378.66;4997393;28;20435;-77
2021/08/04 10:27:55;;;;;;;4.57;1.60;;;;;;;20.19;65.05;101382.44;5010929;28;20122;-76
2021/08/04 10:30:21;;;;;;;2.22;1.50;;;;;;;20.32;65.94;101373.72;4980978;28;20122;-78
2021/08/04 10:32:47;;;;;;;3.15;1.48;;;;;;;20.41;66.92;101372.56;5012716;28;20038;-77
2021/08/04 10:35:13;;;;;;;2.78;1.48;;;;;;;20.48;67.45;101376.09;5022945;28;20021;-76
2021/08/04 10:37:41;;;;;;;3.47;1.48;;;;;;;20.61;68.90;101378.03;4982569;28;20034;-77
2021/08/04 10:40:08;;;;;;;3.20;1.35;;;;;;;20.53;66.67;101381.66;4996566;28;20061;-76
2021/08/04 10:42:38;;;;;;;5.07;1.35;;;;;;;20.62;69.41;101382.31;5014269;28;20068;-78
2021/08/04 10:45:28;;;;;;;4.63;1.58;;;;;;;20.63;66.14;101383.16;4996532;28;20029;-76
2021/08/04 10:48:18;;;;;;;4.13;1.70;;;;;;;20.40;63.72;101371.72;5014782;28;20046;-78
2021/08/04 10:51:12;;;;;;;5.18;1.42;;;;;;;20.41;64.51;101373.38;5016597;28;20041;-80
2021/08/04 10:54:00;;;;;;;1.95;1.38;;;;;;;20.54;67.48;101377.94;5005902;28;20102;-80
2021/08/04 10:56:32;;;;;;;1.95;1.70;;;;;;;20.73;63.26;101372.94;5013600;28;20041;-80
2021/08/04 10:59:10;;;;;;;3.22;1.70;;;;;;;20.77;66.44;101372.34;4997501;28;20034;-81
2021/08/04 11:01:43;;;;;;;4.05;1.90;;;;;;;20.80;66.35;101363.16;4997336;28;20038;-81
2021/08/04 11:04:12;;;;;;;2.38;1.58;;;;;;;20.91;65.58;101359.91;4999066;28;20026;-80
2021/08/04 11:07:12;;;;;;;2.45;1.42;;;;;;;20.97;65.43;101363.63;4980756;28;20030;-81
2021/08/04 11:09:43;;;;;;;2.65;1.63;;;;;;;21.05;64.50;101352.75;4998120;28;20076;-80
2021/08/04 11:12:16;;;;;;;3.35;1.25;;;;;;;21.32;61.67;101360.81;5006351;28;20507;-80
2021/08/04 11:14:49;;;;;;;5.60;1.55;;;;;;;21.43;60.65;101359.41;4998007;28;20030;-81
2021/08/04 11:17:24;;;;;;;2.58;1.55;;;;;;;21.32;61.56;101353.66;4983236;28;20038;-79
2021/08/04 11:20:06;;;;;;;3.20;1.65;;;;;;;21.46;64.43;101351.03;4992903;28;20100;-80
2021/08/04 11:22:34;;;;;;;2.47;1.20;;;;;;;21.67;66.15;101358.03;4996616;28;20662;-79
2021/08/04 11:25:08;;;;;;;3.70;1.80;;;;;;;21.63;60.68;101354.13;5032322;28;20044;-79